Time;durP1;ratioP1;P1;durP2;ratioP2;P2;SDS_P1;SDS_P2;PMS_P1;PMS_P2;Temp;Humidity;BMP_temperature;BMP_pressure;BME280_temperature;BME280_humidity;BME280_pressure;Samples;Min_cycle;Max_cycle;Signal;HPM_P1;HPM_P2
2020/12/03 00:01:13;;;;;;;;;;;;;;;21.53;40.42;100572.28;3136577;27;115770;-54
2020/12/03 00:02:44;;;;;;;;;;;;;;;21.53;40.04;100577.09;3135761;27;115910;-55
2020/12/03 00:04:16;;;;;;;;;;;;;;;21.52;40.37;100569.81;3139964;27;115468;-54
2020/12/03 00:05:50;;;;;;;;;;;;;;;21.50;40.35;100572.94;3111367;27;114140;-54
2020/12/03 00:07:23;;;;;;;;;;;;;;;21.50;40.41;100567.31;3130319;27;114546;-54
2020/12/03 00:09:15;;;;;;;;;;;;;;;21.49;40.08;100571.28;3133837;27;114442;-54
2020/12/03 00:10:46;;;;;;;;;;;;;;;21.47;40.52;100555.91;3135783;27;113965;-55
2020/12/03 00:12:20;;;;;;;;;;;;;;;21.46;40.64;100555.06;3131797;27;114648;-54
2020/12/03 00:13:51;;;;;;;;;;;;;;;21.45;40.66;100544.13;3134470;27;114151;-54
2020/12/03 00:15:22;;;;;;;;;;;;;;;21.44;40.38;100548.91;3135533;27;114985;-54
2020/12/03 00:16:55;;;;;;;;;;;;;;;21.43;40.48;100549.25;3135133;27;114033;-70
2020/12/03 00:18:28;;;;;;;;;;;;;;;21.41;40.49;100546.78;3134987;27;114794;-69
2020/12/03 00:20:15;;;;;;;;;;;;;;;21.40;40.52;100533.88;3135421;27;114859;-70
2020/12/03 00:21:51;;;;;;;;;;;;;;;21.40;40.42;100542.28;3135961;27;114325;-70
2020/12/03 00:23:22;;;;;;;;;;;;;;;21.37;40.97;100540.13;3136057;27;114139;-70
2020/12/03 00:24:54;;;;;;;;;;;;;;;21.37;40.82;100545.75;3134271;27;114221;-70
2020/12/03 00:26:26;;;;;;;;;;;;;;;21.37;40.60;100548.56;3136855;27;114301;-69
2020/12/03 00:27:57;;;;;;;;;;;;;;;21.34;40.71;100552.03;3134523;27;114597;-70
2020/12/03 00:29:28;;;;;;;;;;;;;;;21.34;40.67;100548.41;3136275;27;115059;-70
2020/12/03 00:31:01;;;;;;;;;;;;;;;21.32;40.60;100551.53;3136380;27;114849;-70
2020/12/03 00:32:32;;;;;;;;;;;;;;;21.32;40.96;100559.13;3135977;27;115205;-69
2020/12/03 00:34:04;;;;;;;;;;;;;;;21.30;40.90;100551.03;3122017;27;115203;-71
2020/12/03 00:35:36;;;;;;;;;;;;;;;21.29;40.68;100549.38;3131902;27;114230;-72
2020/12/03 00:37:07;;;;;;;;;;;;;;;21.28;41.05;100542.91;3135644;27;115639;-71
2020/12/03 00:38:38;;;;;;;;;;;;;;;21.28;41.03;100542.09;3122300;27;114321;-71
2020/12/03 00:40:09;;;;;;;;;;;;;;;21.29;41.17;100535.31;3128464;27;115468;-55
2020/12/03 00:41:40;;;;;;;;;;;;;;;21.29;40.88;100538.13;3123405;27;114178;-55
2020/12/03 00:43:12;;;;;;;;;;;;;;;21.30;41.23;100545.41;3121180;27;114259;-54
2020/12/03 00:44:43;;;;;;;;;;;;;;;21.31;41.13;100535.81;3129188;27;114507;-55
2020/12/03 00:46:15;;;;;;;;;;;;;;;21.35;40.89;100524.78;3132978;27;115325;-55
2020/12/03 00:47:46;;;;;;;;;;;;;;;21.36;40.96;100518.81;3139189;27;116865;-54
2020/12/03 00:49:17;;;;;;;;;;;;;;;21.40;41.11;100505.75;3135820;27;114790;-55
2020/12/03 00:50:49;;;;;;;;;;;;;;;21.42;41.05;100497.84;3135330;27;114886;-55
2020/12/03 00:52:20;;;;;;;;;;;;;;;21.47;41.28;100482.81;3131455;27;115849;-54
2020/12/03 00:53:52;;;;;;;;;;;;;;;21.49;41.12;100481.31;3132502;27;114751;-54
2020/12/03 00:55:23;;;;;;;;;;;;;;;21.52;41.32;100486.31;3134946;27;115231;-55
2020/12/03 00:56:55;;;;;;;;;;;;;;;21.55;41.21;100490.44;3132327;27;114759;-55
2020/12/03 00:58:26;;;;;;;;;;;;;;;21.57;41.46;100488.97;3134673;27;114341;-55
2020/12/03 00:59:57;;;;;;;;;;;;;;;21.61;41.33;100472.28;3135106;27;115919;-54
2020/12/03 01:01:28;;;;;;;;;;;;;;;21.63;41.53;100475.56;3134978;27;114795;-54
2020/12/03 01:03:00;;;;;;;;;;;;;;;21.66;41.51;100470.13;3120097;27;115813;-55
2020/12/03 01:04:31;;;;;;;;;;;;;;;21.67;41.22;100462.50;3131042;27;116570;-70
2020/12/03 01:06:02;;;;;;;;;;;;;;;21.69;41.32;100468.63;3135801;27;116127;-71
2020/12/03 01:07:33;;;;;;;;;;;;;;;21.70;41.07;100462.69;3135184;27;114839;-69
2020/12/03 01:09:05;;;;;;;;;;;;;;;21.73;41.35;100464.84;3139368;27;118166;-69
2020/12/03 01:10:36;;;;;;;;;;;;;;;21.74;41.33;100460.88;3122488;27;114304;-70
2020/12/03 01:12:08;;;;;;;;;;;;;;;21.76;41.28;100442.84;3108166;27;114072;-70
2020/12/03 01:13:39;;;;;;;;;;;;;;;21.76;41.35;100437.25;3127538;27;114145;-70
2020/12/03 01:15:10;;;;;;;;;;;;;;;21.77;41.28;100439.69;3135755;27;114587;-70
2020/12/03 01:16:41;;;;;;;;;;;;;;;21.78;41.13;100437.72;3136026;27;114066;-70
2020/12/03 01:18:12;;;;;;;;;;;;;;;21.78;41.13;100434.91;3134943;27;114774;-70
2020/12/03 01:19:44;;;;;;;;;;;;;;;21.79;41.28;100428.13;3134836;27;113882;-70
2020/12/03 01:21:19;;;;;;;;;;;;;;;21.79;41.06;100428.13;3122028;27;114130;-69
2020/12/03 01:22:50;;;;;;;;;;;;;;;21.79;41.09;100426.16;3109536;27;114193;-70
2020/12/03 01:24:21;;;;;;;;;;;;;;;21.78;41.26;100418.88;3130433;27;114088;-69
2020/12/03 01:25:53;;;;;;;;;;;;;;;21.80;41.00;100410.09;3135700;27;114558;-70
2020/12/03 01:27:24;;;;;;;;;;;;;;;21.79;41.06;100406.47;3132921;27;114055;-70
2020/12/03 01:28:56;;;;;;;;;;;;;;;21.81;41.06;100403.31;3126059;27;114129;-70
2020/12/03 01:30:27;;;;;;;;;;;;;;;21.80;41.03;100398.84;3130009;27;114068;-69
2020/12/03 01:31:58;;;;;;;;;;;;;;;21.80;40.98;100404.47;3125496;27;114060;-70
2020/12/03 01:33:30;;;;;;;;;;;;;;;21.79;40.98;100400.00;3117447;27;115688;-70
2020/12/03 01:35:02;;;;;;;;;;;;;;;21.78;40.96;100390.75;3118500;27;115232;-70
2020/12/03 01:36:33;;;;;;;;;;;;;;;21.78;40.92;100392.72;3118793;27;115281;-70
2020/12/03 01:38:04;;;;;;;;;;;;;;;21.78;41.03;100384.28;3122009;27;115266;-71
2020/12/03 01:39:35;;;;;;;;;;;;;;;21.79;41.11;100383.13;3121244;27;114600;-70
2020/12/03 01:41:07;;;;;;;;;;;;;;;21.77;41.08;100375.03;3134266;27;115322;-71
2020/12/03 01:42:39;;;;;;;;;;;;;;;21.76;41.01;100378.97;3119695;27;114797;-71
2020/12/03 01:44:10;;;;;;;;;;;;;;;21.76;41.22;100366.94;3130942;27;115298;-71
2020/12/03 01:45:50;;;;;;;;;;;;;;;21.75;41.46;100366.09;3135302;27;114745;-71
2020/12/03 01:47:21;;;;;;;;;;;;;;;21.74;41.38;100351.22;3135165;27;115173;-71
2020/12/03 01:49:01;;;;;;;;;;;;;;;21.73;41.30;100346.75;3134926;27;114221;-71
2020/12/03 01:50:32;;;;;;;;;;;;;;;21.73;41.16;100343.09;3121375;27;114690;-71
2020/12/03 01:52:03;;;;;;;;;;;;;;;21.73;41.37;100343.09;3129962;27;115379;-71
2020/12/03 01:53:34;;;;;;;;;;;;;;;21.72;41.53;100338.63;3125663;27;115185;-70
2020/12/03 01:55:06;;;;;;;;;;;;;;;21.71;41.12;100325.75;3131974;27;117183;-71
2020/12/03 01:56:37;;;;;;;;;;;;;;;21.70;41.44;100321.28;3122114;27;116346;-70
2020/12/03 01:58:15;;;;;;;;;;;;;;;21.70;41.44;100318.47;3132772;27;114789;-69
2020/12/03 02:00:05;;;;;;;;;;;;;;;21.68;41.47;100321.59;3134873;27;114782;-70
2020/12/03 02:01:36;;;;;;;;;;;;;;;21.68;41.13;100321.59;3135063;27;115990;-70
2020/12/03 02:03:08;;;;;;;;;;;;;;;21.67;41.06;100319.09;3134238;27;115112;-70
2020/12/03 02:04:39;;;;;;;;;;;;;;;21.65;41.06;100310.19;3135215;27;115680;-70
2020/12/03 02:06:10;;;;;;;;;;;;;;;21.64;41.18;100312.19;3135512;27;115181;-71
2020/12/03 02:07:41;;;;;;;;;;;;;;;21.62;41.32;100297.63;3134737;27;115787;-70
2020/12/03 02:09:13;;;;;;;;;;;;;;;21.62;41.28;100302.44;3135401;27;115180;-71
2020/12/03 02:10:44;;;;;;;;;;;;;;;21.60;41.01;100297.13;3134571;27;116046;-71
2020/12/03 02:12:15;;;;;;;;;;;;;;;21.59;40.99;100291.84;3130492;27;116497;-71
2020/12/03 02:13:57;;;;;;;;;;;;;;;21.57;41.35;100286.56;3134942;27;115874;-70
2020/12/03 02:15:28;;;;;;;;;;;;;;;21.56;40.98;100290.53;3134860;27;116066;-70
2020/12/03 02:17:00;;;;;;;;;;;;;;;21.55;41.21;100288.88;3129544;27;114331;-70
2020/12/03 02:18:31;;;;;;;;;;;;;;;21.54;41.22;100283.56;3135280;27;114061;-55
2020/12/03 02:20:07;;;;;;;;;;;;;;;21.52;40.96;100271.84;3134818;27;113979;-56
2020/12/03 02:21:40;;;;;;;;;;;;;;;21.51;41.18;100276.63;3120689;27;115022;-55
2020/12/03 02:23:13;;;;;;;;;;;;;;;21.49;41.17;100278.94;3129985;27;114437;-55
2020/12/03 02:24:44;;;;;;;;;;;;;;;21.47;40.80;100270.03;3134267;27;113921;-55
2020/12/03 02:26:16;;;;;;;;;;;;;;;21.46;40.95;100274.00;3132341;27;115160;-55
2020/12/03 02:27:47;;;;;;;;;;;;;;;21.44;40.96;100270.66;3133487;27;114126;-55
2020/12/03 02:29:19;;;;;;;;;;;;;;;21.41;40.98;100265.72;3135033;27;114110;-55
2020/12/03 02:30:50;;;;;;;;;;;;;;;21.42;41.20;100258.13;3134853;27;114387;-55
2020/12/03 02:32:22;;;;;;;;;;;;;;;21.39;41.22;100256.81;3133024;27;115329;-55
2020/12/03 02:33:53;;;;;;;;;;;;;;;21.38;41.36;100260.78;3134620;27;114231;-55
2020/12/03 02:35:24;;;;;;;;;;;;;;;21.35;41.32;100258.59;3134614;27;114196;-55
2020/12/03 02:36:57;;;;;;;;;;;;;;;21.34;41.21;100247.72;3138805;27;113765;-55
2020/12/03 02:38:31;;;;;;;;;;;;;;;21.33;41.34;100255.31;3134582;27;115334;-55
2020/12/03 02:40:04;;;;;;;;;;;;;;;21.30;41.08;100242.72;3134953;27;115270;-71
2020/12/03 02:41:36;;;;;;;;;;;;;;;21.28;41.27;100245.06;3123514;27;115501;-71
2020/12/03 02:43:08;;;;;;;;;;;;;;;21.27;41.33;100234.97;3121663;27;116211;-71
2020/12/03 02:44:40;;;;;;;;;;;;;;;21.25;41.15;100236.47;3131683;27;114222;-71
2020/12/03 02:46:11;;;;;;;;;;;;;;;21.23;41.13;100233.16;3136412;27;115284;-72
2020/12/03 02:47:42;;;;;;;;;;;;;;;21.21;41.52;100232.69;3136767;27;115321;-71
2020/12/03 02:49:14;;;;;;;;;;;;;;;21.19;41.38;100221.75;3136583;27;114852;-70
2020/12/03 02:50:46;;;;;;;;;;;;;;;21.19;41.17;100223.75;3122683;27;114456;-70
2020/12/03 02:52:22;;;;;;;;;;;;;;;21.17;41.40;100223.22;3132629;27;115733;-71
2020/12/03 02:53:54;;;;;;;;;;;;;;;21.15;41.45;100211.53;3136576;27;114975;-71
2020/12/03 02:55:25;;;;;;;;;;;;;;;21.14;41.40;100202.25;3137589;27;115408;-72
2020/12/03 02:56:56;;;;;;;;;;;;;;;21.12;41.37;100206.53;3135946;27;114198;-70
2020/12/03 03:00:32;;;;;;;;;;;;;;;21.11;41.26;100188.03;3132368;27;114908;-71
2020/12/03 03:02:03;;;;;;;;;;;;;;;21.10;41.22;100180.75;3137239;27;114824;-71
2020/12/03 03:03:34;;;;;;;;;;;;;;;21.07;41.54;100173.00;3121933;27;114631;-71
2020/12/03 03:05:06;;;;;;;;;;;;;;;21.07;41.22;100175.81;3132806;27;116111;-70
2020/12/03 03:06:37;;;;;;;;;;;;;;;21.04;41.54;100174.47;3136954;27;115889;-71
2020/12/03 03:08:13;;;;;;;;;;;;;;;21.04;41.17;100170.81;3136216;27;116293;-71
2020/12/03 03:09:44;;;;;;;;;;;;;;;21.04;41.43;100168.03;3136307;27;115601;-71
2020/12/03 03:11:15;;;;;;;;;;;;;;;20.99;41.17;100165.38;3135790;27;115015;-70
2020/12/03 03:12:47;;;;;;;;;;;;;;;20.97;41.37;100170.50;3135921;27;116104;-71
2020/12/03 03:14:19;;;;;;;;;;;;;;;20.97;41.45;100167.69;3136341;27;114867;-71
2020/12/03 03:15:50;;;;;;;;;;;;;;;20.94;41.29;100157.13;3137228;27;115693;-71
2020/12/03 03:17:21;;;;;;;;;;;;;;;20.94;41.46;100160.75;3122525;27;114665;-71
2020/12/03 03:18:52;;;;;;;;;;;;;;;20.93;41.41;100153.50;3131784;27;115229;-71
2020/12/03 03:20:23;;;;;;;;;;;;;;;20.91;41.25;100157.78;3136620;27;114815;-70
2020/12/03 03:21:55;;;;;;;;;;;;;;;20.90;41.51;100153.31;3139485;27;115053;-70
2020/12/03 03:23:26;;;;;;;;;;;;;;;20.87;41.32;100149.19;3122824;27;114153;-71
2020/12/03 03:24:57;;;;;;;;;;;;;;;20.84;41.68;100149.88;3132298;27;114645;-70
2020/12/03 03:26:28;;;;;;;;;;;;;;;20.83;41.55;100140.63;3135369;27;114392;-71
2020/12/03 03:27:59;;;;;;;;;;;;;;;20.83;41.74;100142.59;3135405;27;114246;-71
2020/12/03 03:29:31;;;;;;;;;;;;;;;20.78;41.44;100137.97;3136394;27;113810;-70
2020/12/03 03:31:02;;;;;;;;;;;;;;;20.78;42.08;100140.78;3137111;27;113872;-71
2020/12/03 03:32:34;;;;;;;;;;;;;;;20.77;41.85;100139.13;3137142;27;114224;-70
2020/12/03 03:34:06;;;;;;;;;;;;;;;20.76;41.67;100125.41;3136828;27;114172;-70
2020/12/03 03:35:37;;;;;;;;;;;;;;;20.75;41.65;100137.81;3136057;27;114103;-70
2020/12/03 03:37:08;;;;;;;;;;;;;;;20.73;41.75;100129.72;3118683;27;114048;-72
2020/12/03 03:38:41;;;;;;;;;;;;;;;20.72;41.60;100128.03;3122222;27;113970;-71
2020/12/03 03:40:12;;;;;;;;;;;;;;;20.75;41.46;100126.56;3137295;27;114596;-72
2020/12/03 03:41:43;;;;;;;;;;;;;;;20.68;41.69;100115.81;3135020;27;114153;-71
2020/12/03 03:43:15;;;;;;;;;;;;;;;20.69;41.39;100109.06;3132977;27;114405;-70
2020/12/03 03:44:46;;;;;;;;;;;;;;;20.65;41.42;100101.63;3123689;27;117822;-74
2020/12/03 03:46:17;;;;;;;;;;;;;;;20.67;41.55;100105.75;3119418;27;115417;-74
2020/12/03 03:47:48;;;;;;;;;;;;;;;20.63;41.96;100104.75;3131732;27;115355;-72
2020/12/03 03:49:19;;;;;;;;;;;;;;;20.61;41.76;100095.88;3123608;27;115097;-71
2020/12/03 03:50:51;;;;;;;;;;;;;;;20.60;41.91;100094.19;3132390;27;115284;-71
2020/12/03 03:52:22;;;;;;;;;;;;;;;20.59;41.88;100095.34;3134769;27;115332;-71
2020/12/03 03:53:54;;;;;;;;;;;;;;;20.57;41.94;100088.44;3135103;27;115142;-71
2020/12/03 03:55:25;;;;;;;;;;;;;;;20.57;41.82;100074.41;3127618;27;114759;-72
2020/12/03 03:56:56;;;;;;;;;;;;;;;20.55;41.87;100071.91;3124681;27;114376;-72
2020/12/03 03:58:27;;;;;;;;;;;;;;;20.53;41.63;100068.63;3134921;27;115241;-72
2020/12/03 03:59:59;;;;;;;;;;;;;;;20.51;41.86;100045.66;3136475;27;114017;-72
2020/12/03 04:01:30;;;;;;;;;;;;;;;20.49;41.75;100050.78;3136359;27;115189;-71
2020/12/03 04:03:01;;;;;;;;;;;;;;;20.47;42.00;100046.66;3136157;27;114974;-71
2020/12/03 04:04:32;;;;;;;;;;;;;;;20.45;41.75;100037.72;3139558;27;114277;-56
2020/12/03 04:06:03;;;;;;;;;;;;;;;20.44;41.55;100039.75;3136235;27;115364;-55
2020/12/03 04:07:35;;;;;;;;;;;;;;;20.44;41.62;100034.13;3135276;27;115892;-55
2020/12/03 04:09:06;;;;;;;;;;;;;;;20.40;41.94;100036.75;3122610;27;114771;-55
2020/12/03 04:10:37;;;;;;;;;;;;;;;20.38;41.83;100027.84;3131237;27;115043;-55
2020/12/03 04:12:09;;;;;;;;;;;;;;;20.39;41.98;100021.09;3134295;27;116217;-55
2020/12/03 04:13:40;;;;;;;;;;;;;;;20.38;42.10;100019.44;3121822;27;114767;-55
2020/12/03 04:15:11;;;;;;;;;;;;;;;20.37;41.97;100014.97;3128473;27;115769;-55
2020/12/03 04:16:42;;;;;;;;;;;;;;;20.38;41.69;100010.19;3133578;27;114845;-55
2020/12/03 04:18:13;;;;;;;;;;;;;;;20.33;41.91;100011.19;3135800;27;115911;-55
2020/12/03 04:19:44;;;;;;;;;;;;;;;20.33;41.98;100011.19;3136734;27;115994;-55
2020/12/03 04:21:16;;;;;;;;;;;;;;;20.32;41.91;99998.31;3135388;27;114472;-55
2020/12/03 04:22:47;;;;;;;;;;;;;;;20.31;41.92;99990.19;3130476;27;117250;-55
2020/12/03 04:24:18;;;;;;;;;;;;;;;20.33;41.95;99987.91;3136936;27;116839;-55
2020/12/03 04:25:50;;;;;;;;;;;;;;;20.29;42.21;99987.72;3148997;27;117127;-55
2020/12/03 04:27:21;;;;;;;;;;;;;;;20.29;42.08;99982.09;3135601;27;113814;-55
2020/12/03 04:28:53;;;;;;;;;;;;;;;20.26;42.13;99977.13;3136152;27;114153;-55
2020/12/03 04:30:24;;;;;;;;;;;;;;;20.25;41.84;99967.09;3122581;27;116950;-55
2020/12/03 04:31:55;;;;;;;;;;;;;;;20.25;41.99;99960.66;3117853;27;114388;-55
2020/12/03 04:33:27;;;;;;;;;;;;;;;20.25;42.34;99967.09;3121474;27;114057;-55
2020/12/03 04:34:59;;;;;;;;;;;;;;;20.23;42.11;99952.56;3130885;27;114517;-56
2020/12/03 04:36:31;;;;;;;;;;;;;;;20.22;42.03;99950.91;3134927;27;114426;-55
2020/12/03 04:38:02;;;;;;;;;;;;;;;20.23;42.16;99946.97;3129646;27;114139;-55
2020/12/03 04:39:33;;;;;;;;;;;;;;;20.22;42.15;99941.66;3135003;27;114141;-55
2020/12/03 04:41:05;;;;;;;;;;;;;;;20.20;42.05;99941.19;3135684;27;114363;-55
2020/12/03 04:42:36;;;;;;;;;;;;;;;20.20;42.02;99927.16;3118477;27;114093;-55
2020/12/03 04:44:27;;;;;;;;;;;;;;;20.18;42.15;99921.88;3125451;27;114157;-55
2020/12/03 04:45:58;;;;;;;;;;;;;;;20.17;42.42;99925.03;3136157;27;114263;-55
2020/12/03 04:47:43;;;;;;;;;;;;;;;20.16;42.46;99914.97;3135967;27;114099;-55
2020/12/03 04:49:23;;;;;;;;;;;;;;;20.15;42.32;99914.13;3139250;27;113601;-55
2020/12/03 04:51:14;;;;;;;;;;;;;;;20.13;42.37;99912.81;3135315;27;114437;-55
2020/12/03 04:53:02;;;;;;;;;;;;;;;20.12;42.29;99905.56;3135495;27;115460;-55
2020/12/03 04:54:47;;;;;;;;;;;;;;;20.09;42.35;99898.63;3136469;27;117264;-55
2020/12/03 04:56:24;;;;;;;;;;;;;;;20.08;42.42;99901.78;3134259;27;115242;-55
2020/12/03 04:58:13;;;;;;;;;;;;;;;20.07;42.53;99895.34;3120451;27;115015;-53
2020/12/03 04:59:57;;;;;;;;;;;;;;;20.07;42.41;99880.50;3134013;27;115143;-55
2020/12/03 05:01:28;;;;;;;;;;;;;;;20.05;42.47;99882.78;3135911;27;115146;-55
2020/12/03 05:03:09;;;;;;;;;;;;;;;20.08;42.30;99876.53;3134833;27;114242;-55
2020/12/03 05:04:58;;;;;;;;;;;;;;;20.05;42.45;99865.97;3135853;27;115328;-55
2020/12/03 05:06:32;;;;;;;;;;;;;;;20.01;42.47;99854.59;3135433;27;114010;-55
2020/12/03 05:08:09;;;;;;;;;;;;;;;20.02;42.29;99853.44;3121247;27;115113;-55
2020/12/03 05:09:45;;;;;;;;;;;;;;;20.00;42.27;99850.13;3131895;27;115379;-54
2020/12/03 05:11:18;;;;;;;;;;;;;;;19.99;42.43;99838.09;3133667;27;114610;-54
2020/12/03 05:12:50;;;;;;;;;;;;;;;19.97;42.46;99840.44;3137341;27;116002;-55
2020/12/03 05:14:36;;;;;;;;;;;;;;;19.97;42.50;99840.44;3135750;27;115720;-53
2020/12/03 05:16:28;;;;;;;;;;;;;;;19.95;42.70;99837.13;3135198;27;114750;-53
2020/12/03 05:17:59;;;;;;;;;;;;;;;19.95;42.55;99836.28;3124240;27;116076;-55
2020/12/03 05:19:49;;;;;;;;;;;;;;;19.93;42.74;99839.44;3135766;27;114807;-55
2020/12/03 05:21:23;;;;;;;;;;;;;;;19.92;42.43;99823.78;3136143;27;116683;-55
2020/12/03 05:23:11;;;;;;;;;;;;;;;19.93;42.60;99816.19;3120862;27;115240;-55
2020/12/03 05:24:42;;;;;;;;;;;;;;;19.88;42.93;99814.38;3121936;27;116946;-55
2020/12/03 05:26:16;;;;;;;;;;;;;;;19.89;42.61;99813.22;3116869;27;114677;-55
2020/12/03 05:27:49;;;;;;;;;;;;;;;19.87;42.89;99798.72;3129850;27;115424;-55
2020/12/03 05:29:21;;;;;;;;;;;;;;;19.88;42.90;99789.16;3134074;27;115427;-55
2020/12/03 05:30:55;;;;;;;;;;;;;;;19.87;42.95;99787.50;3123245;27;115668;-55
2020/12/03 05:32:26;;;;;;;;;;;;;;;19.88;42.73;99788.31;3122943;27;114813;-55
2020/12/03 05:34:00;;;;;;;;;;;;;;;19.85;43.04;99775.78;3134701;27;116327;-55
2020/12/03 05:35:31;;;;;;;;;;;;;;;19.90;43.07;99774.78;3138951;27;114680;-55
2020/12/03 05:37:09;;;;;;;;;;;;;;;19.93;42.95;99760.13;3134515;27;114247;-55
2020/12/03 05:38:40;;;;;;;;;;;;;;;19.97;42.96;99758.28;3135227;27;114165;-56
2020/12/03 05:40:23;;;;;;;;;;;;;;;19.99;43.14;99761.56;3134487;27;113807;-53
2020/12/03 05:42:02;;;;;;;;;;;;;;;20.03;43.11;99753.34;3134418;27;114050;-55
2020/12/03 05:43:33;;;;;;;;;;;;;;;20.06;43.02;99747.06;3133580;27;114181;-55
2020/12/03 05:45:09;;;;;;;;;;;;;;;20.07;43.28;99743.09;3135564;27;113777;-68
2020/12/03 05:46:41;;;;;;;;;;;;;;;20.11;43.13;99735.66;3134965;27;114009;-55
2020/12/03 05:48:14;;;;;;;;;;;;;;;20.13;43.02;99730.53;3135264;27;114250;-55
2020/12/03 05:49:59;;;;;;;;;;;;;;;20.15;43.23;99726.25;3130406;27;114138;-55
2020/12/03 05:51:32;;;;;;;;;;;;;;;20.20;43.03;99714.84;3135800;27;114008;-54
2020/12/03 05:53:12;;;;;;;;;;;;;;;20.22;43.27;99708.88;3134496;27;113888;-55
2020/12/03 05:55:03;;;;;;;;;;;;;;;20.25;43.23;99709.06;3135689;27;115354;-55
2020/12/03 05:56:34;;;;;;;;;;;;;;;20.30;43.16;99708.91;3131943;27;114214;-55
2020/12/03 05:58:17;;;;;;;;;;;;;;;20.35;43.65;99705.06;3138435;27;114095;-55
2020/12/03 05:59:50;;;;;;;;;;;;;;;20.38;43.42;99698.78;3134463;27;114215;-55
2020/12/03 06:01:26;;;;;;;;;;;;;;;20.42;43.28;99699.75;3135715;27;115335;-55
2020/12/03 06:03:12;;;;;;;;;;;;;;;20.47;43.12;99691.13;3134860;27;115118;-55
2020/12/03 06:04:43;;;;;;;;;;;;;;;20.50;43.23;99684.84;3135809;27;115284;-56
2020/12/03 06:06:30;;;;;;;;;;;;;;;20.53;43.23;99675.78;3134984;27;115107;-55
2020/12/03 06:08:16;;;;;;;;;;;;;;;20.57;42.99;99673.91;3134785;27;114876;-55
2020/12/03 06:09:47;;;;;;;;;;;;;;;20.62;43.24;99664.47;3135581;27;114188;-55
2020/12/03 06:11:37;;;;;;;;;;;;;;;20.65;42.91;99661.81;3134216;27;115171;-55
2020/12/03 06:13:11;;;;;;;;;;;;;;;20.69;42.88;99657.16;3133979;27;115157;-55
2020/12/03 06:14:45;;;;;;;;;;;;;;;20.72;42.98;99653.66;3120606;27;115123;-55
2020/12/03 06:16:28;;;;;;;;;;;;;;;20.76;42.57;99649.00;3130500;27;115273;-55
2020/12/03 06:18:02;;;;;;;;;;;;;;;20.79;42.64;99641.91;3135238;27;115488;-55
2020/12/03 06:19:50;;;;;;;;;;;;;;;20.82;42.59;99629.97;3135303;27;115889;-55
2020/12/03 06:21:27;;;;;;;;;;;;;;;20.86;42.43;99626.13;3137628;27;114030;-55
2020/12/03 06:23:01;;;;;;;;;;;;;;;20.89;42.41;99613.41;3133890;27;114308;-55
2020/12/03 06:24:51;;;;;;;;;;;;;;;20.94;42.54;99615.19;3121940;27;116090;-55
2020/12/03 06:26:44;;;;;;;;;;;;;;;20.96;42.21;99601.63;3126846;27;115859;-55
2020/12/03 06:28:31;;;;;;;;;;;;;;;21.00;42.40;99597.78;3086004;27;115991;-54
2020/12/03 06:30:02;;;;;;;;;;;;;;;21.04;41.94;99600.72;3115774;27;115432;-55
2020/12/03 06:31:47;;;;;;;;;;;;;;;21.07;42.02;99598.06;3126708;27;115502;-55
2020/12/03 06:33:33;;;;;;;;;;;;;;;21.10;42.08;99585.31;3128546;27;115906;-55
2020/12/03 06:35:14;;;;;;;;;;;;;;;21.13;41.80;99576.19;3128409;27;114802;-55
2020/12/03 06:36:52;;;;;;;;;;;;;;;21.15;41.91;99571.91;3134733;27;115189;-55
2020/12/03 06:38:35;;;;;;;;;;;;;;;21.18;41.77;99576.00;3128440;27;116028;-55
2020/12/03 06:40:10;;;;;;;;;;;;;;;21.22;41.88;99572.13;3128723;27;115743;-55
2020/12/03 06:41:41;;;;;;;;;;;;;;;21.24;41.85;99571.81;3133695;27;117470;-54
2020/12/03 06:43:18;;;;;;;;;;;;;;;21.25;42.00;99562.22;3133107;27;115815;-55
2020/12/03 06:44:54;;;;;;;;;;;;;;;21.28;42.07;99559.53;3134702;27;115964;-55
2020/12/03 06:46:52;;;;;;;;;;;;;;;21.32;41.94;99539.97;3138256;27;115718;-55
2020/12/03 06:48:42;;;;;;;;;;;;;;;21.34;41.69;99542.44;3131121;27;114601;-55
2020/12/03 06:50:34;;;;;;;;;;;;;;;21.37;41.92;99531.34;3134319;27;114222;-53
2020/12/03 06:52:24;;;;;;;;;;;;;;;21.41;41.85;99529.47;3134500;27;113937;-54
2020/12/03 06:54:06;;;;;;;;;;;;;;;21.42;41.54;99519.03;3134855;27;113892;-55
2020/12/03 06:55:43;;;;;;;;;;;;;;;21.44;41.79;99523.13;3134939;27;114126;-55
2020/12/03 06:57:26;;;;;;;;;;;;;;;21.48;41.69;99518.47;3119609;27;114034;-55
2020/12/03 06:59:16;;;;;;;;;;;;;;;21.50;41.35;99515.31;3131112;27;114230;-55
2020/12/03 07:00:59;;;;;;;;;;;;;;;21.51;41.58;99512.16;3135085;27;113928;-54
2020/12/03 07:02:40;;;;;;;;;;;;;;;21.54;41.26;99505.81;3134642;27;114116;-55
2020/12/03 07:04:11;;;;;;;;;;;;;;;21.56;41.63;99497.03;3134980;27;114770;-55
2020/12/03 07:05:42;;;;;;;;;;;;;;;21.59;41.60;99485.91;3121163;27;114406;-55
2020/12/03 07:07:28;;;;;;;;;;;;;;;21.60;41.38;99481.94;3130020;27;114383;-55
2020/12/03 07:09:15;;;;;;;;;;;;;;;21.62;41.31;99484.41;3134303;27;113881;-55
2020/12/03 07:11:06;;;;;;;;;;;;;;;21.64;41.52;99466.00;3138660;27;114252;-56
2020/12/03 07:13:04;;;;;;;;;;;;;;;21.67;41.42;99458.84;3132841;27;114441;-55
2020/12/03 07:14:54;;;;;;;;;;;;;;;21.68;41.34;99450.06;3134024;27;114343;-55
2020/12/03 07:16:28;;;;;;;;;;;;;;;21.71;41.51;99454.97;3134370;27;114169;-55
2020/12/03 07:18:13;;;;;;;;;;;;;;;21.73;41.59;99447.03;3134416;27;115112;-55
2020/12/03 07:20:01;;;;;;;;;;;;;;;21.76;41.23;99447.50;3134467;27;114088;-55
2020/12/03 07:21:51;;;;;;;;;;;;;;;21.79;41.21;99443.97;3134313;27;114012;-55
2020/12/03 07:23:33;;;;;;;;;;;;;;;21.80;41.28;99440.81;3134167;27;115513;-55
2020/12/03 07:25:05;;;;;;;;;;;;;;;21.82;41.52;99446.91;3134509;27;114153;-55
2020/12/03 07:26:36;;;;;;;;;;;;;;;21.85;41.66;99436.94;3134063;27;116105;-55
2020/12/03 07:28:16;;;;;;;;;;;;;;;21.85;41.44;99431.31;3122051;27;114694;-55
2020/12/03 07:30:14;;;;;;;;;;;;;;;21.87;41.40;99426.16;3120114;27;116063;-55
2020/12/03 07:31:47;;;;;;;;;;;;;;;21.89;41.46;99424.63;3136425;27;114618;-56
2020/12/03 07:33:18;;;;;;;;;;;;;;;21.91;41.34;99418.63;3123055;27;114049;-55
2020/12/03 07:34:54;;;;;;;;;;;;;;;21.92;41.21;99421.09;3134898;27;114399;-55
2020/12/03 07:36:26;;;;;;;;;;;;;;;21.95;41.26;99408.34;3135161;27;115842;-56
2020/12/03 07:38:14;;;;;;;;;;;;;;;21.96;41.15;99404.38;3135328;27;114653;-55
2020/12/03 07:39:49;;;;;;;;;;;;;;;21.98;41.23;99405.66;3135060;27;115737;-56
2020/12/03 07:41:21;;;;;;;;;;;;;;;22.01;41.16;99407.75;3135285;27;115809;-55
2020/12/03 07:43:14;;;;;;;;;;;;;;;22.03;41.30;99401.78;3135890;27;116162;-55
2020/12/03 07:44:50;;;;;;;;;;;;;;;22.04;41.32;99392.97;3128602;27;115905;-55
2020/12/03 07:46:27;;;;;;;;;;;;;;;22.05;41.49;99389.00;3126623;27;114616;-54
2020/12/03 07:48:27;;;;;;;;;;;;;;;22.08;41.53;99387.44;3136042;27;114361;-55
2020/12/03 07:50:06;;;;;;;;;;;;;;;22.09;41.06;99392.72;3120992;27;116159;-55
2020/12/03 07:51:37;;;;;;;;;;;;;;;22.11;40.99;99389.56;3134071;27;115623;-55
2020/12/03 07:53:14;;;;;;;;;;;;;;;22.12;40.88;99379.97;3135063;27;114623;-54
2020/12/03 07:54:45;;;;;;;;;;;;;;;22.13;40.83;99375.94;3135592;27;114876;-55
2020/12/03 07:56:31;;;;;;;;;;;;;;;22.14;41.21;99363.53;3134720;27;115286;-55
2020/12/03 07:58:02;;;;;;;;;;;;;;;22.17;40.69;99357.16;3138023;27;114605;-71
2020/12/03 07:59:37;;;;;;;;;;;;;;;22.17;40.69;99345.91;3135421;27;115543;-71
2020/12/03 08:01:15;;;;;;;;;;;;;;;22.20;40.61;99341.59;3135467;27;113936;-72
2020/12/03 08:02:57;;;;;;;;;;;;;;;22.21;40.88;99341.25;3133678;27;114354;-69
2020/12/03 08:04:33;;;;;;;;;;;;;;;22.24;41.16;99336.88;3135732;27;114217;-72
2020/12/03 08:06:10;;;;;;;;;;;;;;;22.26;40.84;99340.16;3133298;27;115865;-73
2020/12/03 08:07:42;;;;;;;;;;;;;;;22.26;40.69;99335.31;3135947;27;114510;-73